Time;durP1;ratioP1;P1;durP2;ratioP2;P2;SDS_P1;SDS_P2;PMS_P1;PMS_P2;Temp;Humidity;BMP_temperature;BMP_pressure;BME280_temperature;BME280_humidity;BME280_pressure;Samples;Min_cycle;Max_cycle;Signal;HPM_P1;HPM_P2
2023/07/02 00:00:19;;;;;;;10.90;7.10;;;;;;;20.62;100.00;100162.02;106758;1285;58343;-80
2023/07/02 00:02:45;;;;;;;11.80;7.00;;;;;;;20.64;100.00;100154.67;106755;1287;58242;-82
2023/07/02 00:05:11;;;;;;;10.50;6.50;;;;;;;20.67;100.00;100159.74;106687;1285;61578;-81
2023/07/02 00:07:37;;;;;;;11.70;6.70;;;;;;;20.68;100.00;100156.17;106499;1286;58636;-81
2023/07/02 00:10:03;;;;;;;13.20;7.10;;;;;;;20.63;100.00;100156.36;106668;1286;58204;-82
2023/07/02 00:12:29;;;;;;;14.80;6.80;;;;;;;20.64;100.00;100152.84;106730;1286;58306;-82
2023/07/02 00:14:54;;;;;;;9.90;6.20;;;;;;;20.60;100.00;100152.49;106773;1286;58282;-81
2023/07/02 00:17:20;;;;;;;10.70;6.40;;;;;;;20.51;100.00;100150.18;106730;1286;58298;-81
2023/07/02 00:19:46;;;;;;;11.70;6.40;;;;;;;20.43;100.00;100150.99;106741;1285;58914;-81
2023/07/02 00:22:12;;;;;;;11.60;6.50;;;;;;;20.35;100.00;100146.91;106576;1286;74050;-82
2023/07/02 00:24:38;;;;;;;12.10;7.30;;;;;;;20.29;100.00;100144.63;106680;1285;58638;-81
2023/07/02 00:27:03;;;;;;;13.40;7.50;;;;;;;20.24;100.00;100143.54;106309;1289;58319;-81
2023/07/02 00:29:29;;;;;;;14.50;7.20;;;;;;;20.16;100.00;100147.13;106411;1290;58336;-81
2023/07/02 00:31:54;;;;;;;11.50;6.50;;;;;;;20.07;100.00;100147.83;106403;1289;58295;-82
2023/07/02 00:34:20;;;;;;;15.00;7.00;;;;;;;20.03;100.00;100148.30;106427;1289;58376;-81
2023/07/02 00:36:46;;;;;;;19.30;8.00;;;;;;;19.98;100.00;100150.77;106363;1289;58990;-81
2023/07/02 00:39:12;;;;;;;15.40;6.90;;;;;;;19.86;100.00;100150.12;106111;1288;58349;-82
2023/07/02 00:41:38;;;;;;;17.90;7.20;;;;;;;19.84;100.00;100151.42;106384;1288;58691;-81
2023/07/02 00:44:04;;;;;;;18.80;7.60;;;;;;;19.74;100.00;100150.17;106385;1290;58357;-78
2023/07/02 00:46:30;;;;;;;14.20;8.00;;;;;;;19.66;100.00;100150.09;106339;1289;58247;-81
2023/07/02 00:48:56;;;;;;;17.30;7.70;;;;;;;19.57;100.00;100155.91;106277;1289;59179;-82
2023/07/02 00:51:26;;;;;;;17.80;8.10;;;;;;;19.53;100.00;100160.05;106235;1289;58325;-82
2023/07/02 00:53:54;;;;;;;19.90;7.80;;;;;;;19.47;100.00;100159.64;106318;1293;73815;-81
2023/07/02 00:56:21;;;;;;;16.70;8.00;;;;;;;19.39;100.00;100158.01;106378;1293;73427;-81
2023/07/02 00:58:50;;;;;;;14.40;8.00;;;;;;;19.34;100.00;100157.27;106573;1286;58273;-81
2023/07/02 01:01:16;;;;;;;11.70;7.30;;;;;;;19.29;100.00;100158.92;106683;1286;60617;-80
2023/07/02 01:03:59;;;;;;;20.80;8.20;;;;;;;19.25;100.00;100160.33;106669;1286;58281;-81
2023/07/02 01:06:30;;;;;;;19.50;8.20;;;;;;;19.21;100.00;100163.05;106551;1286;74738;-80
2023/07/02 01:09:05;;;;;;;14.80;7.80;;;;;;;19.15;100.00;100162.98;106709;1286;73689;-81
2023/07/02 01:11:39;;;;;;;17.90;7.90;;;;;;;19.11;100.00;100161.00;106734;1286;73343;-81
2023/07/02 01:14:15;;;;;;;12.60;7.50;;;;;;;19.04;100.00;100164.41;106675;1286;62735;-81
2023/07/02 01:16:43;;;;;;;16.00;8.00;;;;;;;18.97;100.00;100162.73;106704;1286;60215;-80
2023/07/02 01:19:18;;;;;;;18.90;8.10;;;;;;;18.92;100.00;100165.09;106705;1286;73814;-80
2023/07/02 01:21:45;;;;;;;14.70;8.00;;;;;;;18.90;100.00;100160.79;106694;1286;73352;-81
2023/07/02 01:24:14;;;;;;;18.00;8.20;;;;;;;18.90;100.00;100165.92;106513;1287;73475;-81
2023/07/02 01:26:40;;;;;;;14.40;7.70;;;;;;;18.86;100.00;100166.33;106695;1286;61685;-81
2023/07/02 01:29:21;;;;;;;15.70;8.40;;;;;;;18.81;100.00;100169.61;106705;1285;58235;-81
2023/07/02 01:31:47;;;;;;;13.80;8.10;;;;;;;18.76;100.00;100165.04;106706;1286;74507;-81
2023/07/02 01:34:16;;;;;;;14.60;8.40;;;;;;;18.72;100.00;100164.66;106687;1286;58696;-81
2023/07/02 01:36:41;;;;;;;16.50;8.30;;;;;;;18.65;100.00;100167.25;106553;1286;73513;-82
2023/07/02 01:39:07;;;;;;;19.10;8.10;;;;;;;18.62;100.00;100167.73;106725;1286;58231;-82
2023/07/02 01:41:52;;;;;;;20.00;8.30;;;;;;;18.57;100.00;100169.84;106711;1286;58657;-82
2023/07/02 01:44:19;;;;;;;19.90;8.50;;;;;;;18.57;100.00;100175.33;106702;1286;74696;-82
2023/07/02 01:46:48;;;;;;;21.30;8.00;;;;;;;18.54;100.00;100175.46;106702;1286;58365;-82
2023/07/02 01:49:23;;;;;;;20.30;8.60;;;;;;;18.57;100.00;100175.33;106684;1286;72328;-82
2023/07/02 01:51:49;;;;;;;19.50;8.60;;;;;;;18.57;100.00;100173.94;106727;1285;61736;-82
2023/07/02 01:54:15;;;;;;;19.60;8.80;;;;;;;18.53;100.00;100172.51;106704;1286;58410;-82
2023/07/02 01:56:41;;;;;;;18.60;8.30;;;;;;;18.56;100.00;100173.01;106704;1285;58350;-82
2023/07/02 01:59:06;;;;;;;21.50;8.90;;;;;;;18.63;100.00;100168.47;106535;1286;58312;-82
2023/07/02 02:01:35;;;;;;;18.70;8.90;;;;;;;18.67;100.00;100166.63;106703;1285;58586;-82
2023/07/02 02:04:00;;;;;;;21.90;9.50;;;;;;;18.71;100.00;100164.09;106408;1286;58439;-83
2023/07/02 02:06:26;;;;;;;21.50;9.00;;;;;;;18.81;100.00;100166.73;106690;1285;58290;-81
2023/07/02 02:08:51;;;;;;;20.20;9.30;;;;;;;18.93;100.00;100167.84;106718;1286;58311;-82
2023/07/02 02:11:17;;;;;;;18.80;9.20;;;;;;;19.03;100.00;100167.72;106722;1286;58509;-82
2023/07/02 02:13:42;;;;;;;19.20;9.90;;;;;;;19.14;100.00;100165.11;106720;1286;61845;-82
2023/07/02 02:16:08;;;;;;;18.80;8.50;;;;;;;19.21;100.00;100168.44;106444;1286;58397;-83
2023/07/02 02:18:34;;;;;;;20.00;9.30;;;;;;;19.32;100.00;100172.58;106672;1285;58273;-83
2023/07/02 02:21:00;;;;;;;23.00;9.50;;;;;;;19.42;100.00;100173.65;106723;1286;59205;-77
2023/07/02 02:23:25;;;;;;;17.90;9.40;;;;;;;19.51;100.00;100175.60;106436;1286;58313;-82
2023/07/02 02:25:51;;;;;;;18.80;9.20;;;;;;;19.58;100.00;100169.70;106640;1287;58323;-83
2023/07/02 02:28:16;;;;;;;24.20;9.50;;;;;;;19.67;100.00;100177.73;106717;1286;58230;-82
2023/07/02 02:30:42;;;;;;;19.50;8.80;;;;;;;19.76;100.00;100176.98;106485;1286;58552;-83
2023/07/02 02:33:07;;;;;;;18.60;9.50;;;;;;;19.85;100.00;100176.48;106694;1285;58244;-83
2023/07/02 02:35:33;;;;;;;22.60;8.50;;;;;;;19.91;100.00;100180.23;106697;1286;58173;-83
2023/07/02 02:38:02;;;;;;;17.30;8.40;;;;;;;19.97;100.00;100181.15;106752;1285;58291;-83
2023/07/02 02:40:28;;;;;;;19.20;8.50;;;;;;;20.07;100.00;100182.98;106697;1286;73247;-83
2023/07/02 02:42:53;;;;;;;19.70;8.90;;;;;;;20.15;100.00;100181.02;106686;1285;58415;-83
2023/07/02 02:45:19;;;;;;;17.60;8.40;;;;;;;20.22;100.00;100184.41;106669;1285;58477;-82
2023/07/02 02:47:46;;;;;;;20.70;8.80;;;;;;;20.26;100.00;100183.30;106623;1287;58342;-83
2023/07/02 02:50:12;;;;;;;19.90;9.00;;;;;;;20.30;100.00;100184.95;106721;1286;58312;-83
2023/07/02 02:53:01;;;;;;;19.20;9.10;;;;;;;20.35;100.00;100183.23;106593;1286;58302;-82
2023/07/02 02:55:28;;;;;;;19.60;8.10;;;;;;;20.42;100.00;100179.50;105872;1292;74704;-83
2023/07/02 02:57:53;;;;;;;19.60;9.60;;;;;;;20.49;100.00;100177.50;106030;1292;58270;-83
2023/07/02 03:00:19;;;;;;;21.10;9.30;;;;;;;20.56;100.00;100179.65;106055;1292;58558;-83
2023/07/02 03:02:44;;;;;;;26.30;9.90;;;;;;;20.63;100.00;100182.62;105801;1292;58296;-83
2023/07/02 03:05:09;;;;;;;22.50;9.70;;;;;;;20.71;100.00;100178.21;106029;1293;58354;-82
2023/07/02 03:07:38;;;;;;;23.50;9.10;;;;;;;20.82;100.00;100176.02;106065;1293;58498;-81
2023/07/02 03:10:05;;;;;;;25.00;10.10;;;;;;;20.93;100.00;100178.11;106051;1292;59351;-82
2023/07/02 03:12:30;;;;;;;24.00;10.10;;;;;;;21.08;100.00;100179.63;106042;1293;74783;-83
2023/07/02 03:14:58;;;;;;;24.50;9.90;;;;;;;21.24;100.00;100182.83;106051;1292;58426;-82
2023/07/02 03:17:24;;;;;;;29.20;10.50;;;;;;;21.42;100.00;100182.38;106043;1292;73701;-83
2023/07/02 03:19:50;;;;;;;24.40;10.20;;;;;;;21.58;100.00;100175.85;106051;1292;58364;-83
2023/07/02 03:22:28;;;;;;;;;;;;;;;;;;;;;
2023/07/02 03:24:53;;;;;;;26.20;9.70;;;;;;;21.96;100.00;100178.65;105973;1293;74109;-83
2023/07/02 03:27:19;;;;;;;23.70;9.40;;;;;;;22.22;100.00;100178.97;105869;1293;58455;-83
2023/07/02 03:29:44;;;;;;;22.30;9.90;;;;;;;22.52;100.00;100178.48;106015;1292;58678;-83
2023/07/02 03:32:10;;;;;;;20.70;9.20;;;;;;;22.79;100.00;100177.29;106001;1291;58443;-82
2023/07/02 03:34:35;;;;;;;16.90;8.00;;;;;;;22.97;100.00;100183.19;106763;1286;58317;-83
2023/07/02 03:37:01;;;;;;;25.00;9.10;;;;;;;23.11;100.00;100179.95;106459;1286;58624;-83
2023/07/02 03:39:26;;;;;;;20.00;8.70;;;;;;;23.24;100.00;100184.30;106564;1286;58627;-83
2023/07/02 03:41:52;;;;;;;17.50;8.30;;;;;;;23.36;100.00;100186.40;106402;1287;58356;-83
2023/07/02 03:44:19;;;;;;;20.80;8.60;;;;;;;23.48;100.00;100188.86;106640;1286;58339;-83
2023/07/02 03:46:45;;;;;;;21.90;9.20;;;;;;;23.55;100.00;100188.73;106717;1286;58205;-80
2023/07/02 03:49:10;;;;;;;26.60;8.80;;;;;;;23.67;100.00;100189.62;106475;1286;58460;-83
2023/07/02 03:51:36;;;;;;;25.60;9.90;;;;;;;23.71;100.00;100192.34;106709;1286;58239;-83
2023/07/02 03:54:01;;;;;;;21.90;9.30;;;;;;;23.73;100.00;100189.71;106691;1287;58310;-82
2023/07/02 03:56:45;;;;;;;28.90;8.20;;;;;;;23.72;100.00;100194.27;106697;1285;58719;-83
2023/07/02 03:59:10;;;;;;;26.40;9.10;;;;;;;23.74;100.00;100190.77;106706;1286;74249;-83
2023/07/02 04:01:36;;;;;;;22.90;9.40;;;;;;;23.70;100.00;100189.65;106654;1285;58801;-83
2023/07/02 04:04:01;;;;;;;21.80;8.80;;;;;;;23.64;100.00;100188.69;106676;1285;58251;-84
2023/07/02 04:06:27;;;;;;;29.70;10.80;;;;;;;23.51;100.00;100179.17;106680;1286;58579;-84
2023/07/02 04:08:52;;;;;;;28.10;11.20;;;;;;;23.29;100.00;100180.96;106797;1285;58353;-84
2023/07/02 04:11:18;;;;;;;23.70;10.80;;;;;;;23.15;100.00;100181.71;106306;1286;72360;-83
2023/07/02 04:13:43;;;;;;;22.10;11.10;;;;;;;23.06;100.00;100188.09;106690;1286;58344;-82
2023/07/02 04:16:09;;;;;;;27.30;10.70;;;;;;;23.00;100.00;100191.07;106292;1288;58404;-84
2023/07/02 04:18:34;;;;;;;22.80;9.70;;;;;;;22.91;100.00;100204.09;106686;1286;58196;-84
2023/07/02 04:21:01;;;;;;;23.10;10.40;;;;;;;22.77;100.00;100212.52;106739;1285;58265;-83
2023/07/02 04:23:27;;;;;;;24.60;11.00;;;;;;;22.74;100.00;100216.04;106674;1286;62844;-84
2023/07/02 04:25:52;;;;;;;23.40;10.80;;;;;;;22.76;100.00;100211.30;106724;1286;58372;-89
2023/07/02 04:28:18;;;;;;;25.20;11.40;;;;;;;22.83;100.00;100214.00;106739;1285;58472;-84
2023/07/02 04:30:44;;;;;;;23.40;10.80;;;;;;;22.85;100.00;100213.41;106703;1286;58239;-83
2023/07/02 04:33:14;;;;;;;21.70;11.80;;;;;;;22.87;100.00;100209.63;106569;1286;58322;-83
2023/07/02 04:35:39;;;;;;;26.90;12.80;;;;;;;22.91;100.00;100210.22;106436;1286;58327;-84
2023/07/02 04:38:06;;;;;;;30.30;13.50;;;;;;;22.98;100.00;100210.64;106578;1286;58348;-84
2023/07/02 04:40:32;;;;;;;24.90;12.10;;;;;;;23.02;100.00;100208.26;106688;1286;58267;-82
2023/07/02 04:42:57;;;;;;;29.10;12.60;;;;;;;23.10;100.00;100206.77;106461;1286;58293;-85
2023/07/02 04:45:31;;;;;;;22.90;12.30;;;;;;;23.18;100.00;100209.75;106656;1286;58401;-84
2023/07/02 04:47:57;;;;;;;21.60;12.00;;;;;;;23.30;100.00;100214.22;106537;1286;61751;-85
2023/07/02 04:50:23;;;;;;;26.40;12.10;;;;;;;23.44;100.00;100216.52;106729;1286;58319;-84
2023/07/02 04:52:48;;;;;;;25.80;12.40;;;;;;;23.55;100.00;100217.48;106734;1286;58640;-84
2023/07/02 04:55:14;;;;;;;25.80;12.60;;;;;;;23.74;100.00;100214.18;106735;1286;58248;-84
2023/07/02 04:57:39;;;;;;;28.90;12.10;;;;;;;24.14;100.00;100213.95;106476;1286;58371;-83
2023/07/02 05:00:06;;;;;;;22.00;10.90;;;;;;;24.36;100.00;100212.46;106693;1286;60174;-84
2023/07/02 05:02:31;;;;;;;21.70;10.80;;;;;;;24.49;100.00;100218.33;106697;1285;58173;-84
2023/07/02 05:04:57;;;;;;;28.40;11.90;;;;;;;24.55;100.00;100214.91;106347;1286;58396;-84
2023/07/02 05:07:23;;;;;;;27.10;11.40;;;;;;;24.64;100.00;100215.08;106691;1286;58506;-89
2023/07/02 05:09:49;;;;;;;23.40;10.60;;;;;;;24.80;100.00;100213.17;106721;1286;58222;-84
2023/07/02 05:12:15;;;;;;;22.40;10.70;;;;;;;24.89;100.00;100213.27;106653;1286;58132;-84
2023/07/02 05:14:59;;;;;;;22.50;10.50;;;;;;;24.93;100.00;100218.38;106722;1286;58221;-84
2023/07/02 05:17:28;;;;;;;27.10;10.30;;;;;;;25.02;100.00;100215.70;106715;1285;74313;-84
2023/07/02 05:19:53;;;;;;;33.30;9.40;;;;;;;25.10;100.00;100215.14;106700;1285;73293;-81
2023/07/02 05:22:19;;;;;;;23.90;10.00;;;;;;;25.28;100.00;100215.63;106720;1286;58541;-82
2023/07/02 05:24:46;;;;;;;18.50;8.70;;;;;;;25.36;100.00;100218.52;106711;1285;58432;-84
2023/07/02 05:27:11;;;;;;;17.50;9.30;;;;;;;25.40;100.00;100221.33;106316;1289;58337;-83
2023/07/02 05:29:37;;;;;;;20.00;9.70;;;;;;;25.44;100.00;100219.67;106185;1288;58426;-84
2023/07/02 05:32:03;;;;;;;23.40;9.40;;;;;;;25.47;100.00;100226.34;106380;1289;58375;-88
2023/07/02 05:34:28;;;;;;;22.10;9.80;;;;;;;25.50;100.00;100224.58;106364;1289;58334;-84
2023/07/02 05:36:54;;;;;;;19.90;9.40;;;;;;;25.57;100.00;100223.73;106359;1289;58286;-84
2023/07/02 05:39:19;;;;;;;17.20;9.20;;;;;;;25.70;100.00;100223.22;106385;1289;58344;-84
2023/07/02 05:41:45;;;;;;;22.00;9.30;;;;;;;25.83;100.00;100229.73;106269;1289;58310;-83
2023/07/02 05:44:10;;;;;;;29.30;9.20;;;;;;;25.93;100.00;100229.89;106095;1289;58647;-83
2023/07/02 05:46:36;;;;;;;23.10;9.30;;;;;;;26.08;100.00;100232.39;106397;1288;58310;-81
2023/07/02 05:49:01;;;;;;;25.70;9.40;;;;;;;26.30;100.00;100231.73;106160;1289;58339;-82
2023/07/02 05:51:26;;;;;;;23.40;9.50;;;;;;;26.49;100.00;100234.66;106342;1288;58426;-82
2023/07/02 05:53:52;;;;;;;24.70;9.80;;;;;;;26.66;100.00;100230.84;106353;1289;58304;-83
2023/07/02 05:56:18;;;;;;;23.90;9.90;;;;;;;26.87;100.00;100226.72;106359;1289;58340;-83
2023/07/02 05:58:46;;;;;;;24.80;9.90;;;;;;;26.99;100.00;100227.31;106653;1286;58304;-83
2023/07/02 06:01:11;;;;;;;31.80;9.60;;;;;;;27.03;100.00;100227.04;106642;1286;73435;-83
2023/07/02 06:03:37;;;;;;;22.20;9.80;;;;;;;27.10;100.00;100227.49;106609;1286;58283;-83
2023/07/02 06:06:03;;;;;;;27.40;10.00;;;;;;;27.21;100.00;100226.14;106546;1286;58398;-82
2023/07/02 06:08:28;;;;;;;28.80;9.50;;;;;;;27.30;100.00;100224.77;106527;1286;58173;-83
2023/07/02 06:10:57;;;;;;;29.30;10.00;;;;;;;27.40;100.00;100225.65;106751;1286;58287;-83
2023/07/02 06:13:22;;;;;;;24.20;10.00;;;;;;;27.49;100.00;100227.87;106692;1286;58220;-83
2023/07/02 06:15:54;;;;;;;25.50;10.30;;;;;;;27.57;100.00;100226.09;106729;1286;58185;-83
2023/07/02 06:18:19;;;;;;;28.50;11.50;;;;;;;27.71;100.00;100228.42;106745;1286;59812;-84
2023/07/02 06:20:49;;;;;;;19.00;10.60;;;;;;;27.93;100.00;100230.88;106712;1286;58357;-84
2023/07/02 06:23:15;;;;;;;23.40;11.10;;;;;;;28.20;100.00;100231.33;106612;1286;74140;-80
2023/07/02 06:25:40;;;;;;;26.70;11.30;;;;;;;28.51;100.00;100232.74;106693;1286;58263;-84
2023/07/02 06:28:06;;;;;;;28.40;11.90;;;;;;;28.91;100.00;100236.04;106762;1285;58294;-83
2023/07/02 06:30:31;;;;;;;31.70;12.00;;;;;;;29.36;100.00;100229.04;106441;1286;58362;-84
2023/07/02 06:32:57;;;;;;;22.10;11.50;;;;;;;29.87;100.00;100229.40;106833;1285;58356;-82
2023/07/02 06:35:22;;;;;;;25.50;11.40;;;;;;;30.35;99.62;100225.30;106668;1286;73231;-82
2023/07/02 06:37:50;;;;;;;25.30;12.10;;;;;;;30.75;97.92;100228.36;106708;1285;58177;-81
2023/07/02 06:40:16;;;;;;;26.90;11.10;;;;;;;31.38;95.83;100230.64;106616;1286;60750;-81
2023/07/02 06:42:41;;;;;;;23.30;11.60;;;;;;;32.13;93.22;100232.63;106641;1287;59385;-82
2023/07/02 06:45:07;;;;;;;26.90;13.00;;;;;;;32.98;86.32;100226.59;106718;1285;58251;-82
2023/07/02 06:47:33;;;;;;;31.10;11.00;;;;;;;33.72;80.28;100223.85;106702;1286;58197;-82
2023/07/02 06:49:59;;;;;;;20.90;11.90;;;;;;;34.44;76.45;100222.30;106684;1286;58524;-85
2023/07/02 06:52:24;;;;;;;26.20;10.70;;;;;;;35.18;71.54;100221.58;106759;1285;58612;-91
2023/07/02 06:54:50;;;;;;;21.80;10.70;;;;;;;35.23;67.81;100218.16;106432;1286;73404;-89
2023/07/02 06:57:16;;;;;;;21.50;10.20;;;;;;;34.97;66.82;100221.67;106713;1286;58272;-90
2023/07/02 06:59:42;;;;;;;30.90;10.50;;;;;;;34.71;67.51;100216.91;106436;1286;58296;-90
2023/07/02 07:02:07;;;;;;;18.70;9.50;;;;;;;34.55;67.01;100214.95;106488;1286;59039;-89
2023/07/02 07:04:34;;;;;;;20.10;9.90;;;;;;;34.83;66.69;100213.13;106671;1287;58723;-89
2023/07/02 07:07:02;;;;;;;24.40;9.90;;;;;;;35.02;65.22;100214.91;106580;1286;58675;-88
2023/07/02 07:09:28;;;;;;;22.10;10.00;;;;;;;35.12;64.23;100214.63;106182;1286;538617;-89
2023/07/02 07:11:54;;;;;;;21.70;8.70;;;;;;;35.03;63.41;100213.93;106764;1286;58189;-86
2023/07/02 07:14:19;;;;;;;19.10;8.60;;;;;;;35.08;62.52;100218.55;106373;1286;58313;-88
2023/07/02 07:16:45;;;;;;;18.90;9.60;;;;;;;35.14;61.81;100216.98;106784;1286;58225;-90
2023/07/02 07:19:10;;;;;;;18.60;8.60;;;;;;;35.29;61.02;100220.13;106462;1286;72627;-88
2023/07/02 07:21:36;;;;;;;17.60;8.80;;;;;;;35.46;59.05;100218.86;106711;1286;58199;-89
2023/07/02 07:24:02;;;;;;;16.00;8.30;;;;;;;35.51;59.16;100217.48;106631;1286;58298;-86
2023/07/02 07:26:27;;;;;;;18.40;8.50;;;;;;;35.60;57.19;100217.97;106432;1286;58276;-88
2023/07/02 07:28:55;;;;;;;16.70;8.70;;;;;;;35.78;57.78;100218.12;106769;1286;58235;-90
2023/07/02 07:31:21;;;;;;;22.40;7.90;;;;;;;36.11;57.52;100218.02;106162;1290;60793;-89
2023/07/02 07:33:47;;;;;;;20.50;8.70;;;;;;;36.17;56.85;100218.02;106680;1286;58630;-90
2023/07/02 07:36:13;;;;;;;14.00;8.60;;;;;;;36.08;57.52;100215.80;106726;1285;58291;-89
2023/07/02 07:38:39;;;;;;;17.50;8.10;;;;;;;35.99;56.61;100218.91;106500;1286;58260;-88
2023/07/02 07:41:05;;;;;;;15.50;8.50;;;;;;;35.81;54.73;100219.18;106584;1286;58227;-91
2023/07/02 07:43:30;;;;;;;14.30;8.80;;;;;;;35.64;54.61;100214.66;106371;1289;58342;-89
2023/07/02 07:45:56;;;;;;;16.00;8.10;;;;;;;35.56;55.08;100218.88;106302;1290;58384;-89
2023/07/02 07:48:22;;;;;;;11.70;7.20;;;;;;;35.50;54.91;100217.98;106309;1289;58777;-90
2023/07/02 07:50:47;;;;;;;13.10;7.70;;;;;;;35.52;54.29;100219.46;106250;1289;58378;-89
2023/07/02 07:53:13;;;;;;;16.00;8.60;;;;;;;35.75;53.51;100219.15;106290;1289;58290;-91
2023/07/02 07:55:38;;;;;;;15.50;8.50;;;;;;;36.14;53.18;100225.46;106307;1289;58391;-90
2023/07/02 07:58:04;;;;;;;15.50;8.20;;;;;;;36.43;53.16;100227.23;106430;1289;58283;-89
2023/07/02 08:00:30;;;;;;;20.50;9.50;;;;;;;36.79;52.49;100227.55;106188;1291;58354;-91
2023/07/02 08:02:55;;;;;;;20.70;10.10;;;;;;;37.15;51.46;100223.93;106195;1291;58332;-91
2023/07/02 08:07:19;;;;;;;16.80;9.80;;;;;;;37.25;49.56;100222.05;103573;1288;600792;-93
2023/07/02 08:09:44;;;;;;;21.70;9.40;;;;;;;37.47;49.37;100219.27;103147;1288;60336;-92
2023/07/02 08:12:10;;;;;;;19.00;9.80;;;;;;;37.88;49.21;100218.65;103134;1286;60281;-91
